Time;durP1;ratioP1;P1;durP2;ratioP2;P2;SDS_P1;SDS_P2;PMS_P1;PMS_P2;Temp;Humidity;BMP_temperature;BMP_pressure;BME280_temperature;BME280_humidity;BME280_pressure;Samples;Min_cycle;Max_cycle;Signal;HPM_P1;HPM_P2
2022/09/25 00:01:13;;;;;;;12.15;11.13;;;;;;;;;;5035290;28;20144;-69
2022/09/25 00:03:39;;;;;;;11.70;10.98;;;;;;;;;;5033620;28;20108;-69
2022/09/25 00:06:06;;;;;;;13.38;12.48;;;;;;;;;;5036753;28;20271;-69
2022/09/25 00:08:34;;;;;;;13.55;12.73;;;;;;;;;;5037977;28;20030;-70
2022/09/25 00:11:05;;;;;;;13.60;12.80;;;;;;;;;;5035287;28;20167;-70
2022/09/25 00:13:30;;;;;;;13.77;12.88;;;;;;;;;;5035408;28;20351;-70
2022/09/25 00:15:56;;;;;;;13.77;12.93;;;;;;;;;;5031277;28;20056;-71
2022/09/25 00:21:11;;;;;;;13.88;13.05;;;;;;;;;;5031580;28;20041;-70
2022/09/25 00:23:37;;;;;;;14.65;13.75;;;;;;;;;;5038936;28;20074;-71
2022/09/25 00:26:07;;;;;;;13.82;12.98;;;;;;;;;;5036947;28;20083;-70
2022/09/25 00:28:35;;;;;;;13.00;12.20;;;;;;;;;;5035536;28;20029;-70
2022/09/25 00:31:01;;;;;;;13.70;12.85;;;;;;;;;;5027255;28;20029;-70
2022/09/25 00:33:27;;;;;;;14.75;13.32;;;;;;;;;;5032860;28;20048;-70
2022/09/25 00:35:52;;;;;;;14.13;13.13;;;;;;;;;;5035675;28;20048;-69
2022/09/25 00:38:17;;;;;;;12.85;12.05;;;;;;;;;;5030200;28;20478;-70
2022/09/25 00:40:43;;;;;;;13.38;12.52;;;;;;;;;;5035805;28;20256;-70
2022/09/25 00:43:13;;;;;;;14.38;13.52;;;;;;;;;;5036164;28;20037;-70
2022/09/25 00:45:39;;;;;;;12.48;11.73;;;;;;;;;;5034141;28;20518;-70
2022/09/25 00:48:08;;;;;;;13.80;12.98;;;;;;;;;;5033152;28;20033;-70
2022/09/25 00:50:51;;;;;;;12.90;12.13;;;;;;;;;;5035284;28;20660;-70
2022/09/25 00:53:22;;;;;;;14.93;14.00;;;;;;;;;;5033812;28;20061;-70
2022/09/25 00:55:48;;;;;;;13.35;12.55;;;;;;;;;;5033877;28;20092;-70
2022/09/25 00:58:17;;;;;;;13.77;12.90;;;;;;;;;;5035052;28;20033;-70
2022/09/25 01:00:44;;;;;;;13.40;12.57;;;;;;;;;;5037421;28;20036;-70
2022/09/25 01:03:10;;;;;;;11.68;10.98;;;;;;;;;;5033669;28;20307;-69
2022/09/25 01:05:39;;;;;;;12.95;12.13;;;;;;;;;;5034022;28;20142;-70
2022/09/25 01:08:09;;;;;;;12.88;12.05;;;;;;;;;;5031498;28;20041;-70
2022/09/25 01:10:35;;;;;;;12.63;11.88;;;;;;;;;;5036228;28;20055;-70
2022/09/25 01:13:00;;;;;;;12.40;11.68;;;;;;;;;;5033175;28;20103;-70
2022/09/25 01:15:50;;;;;;;13.05;12.27;;;;;;;;;;5032572;28;20047;-70
2022/09/25 01:18:44;;;;;;;13.52;12.68;;;;;;;;;;5037851;28;20037;-70
2022/09/25 01:21:23;;;;;;;13.35;12.55;;;;;;;;;;5034073;28;20479;-70
2022/09/25 01:23:59;;;;;;;12.40;11.60;;;;;;;;;;5036389;28;20121;-70
2022/09/25 01:26:30;;;;;;;12.80;12.00;;;;;;;;;;5034903;28;20033;-70
2022/09/25 01:29:05;;;;;;;12.65;11.85;;;;;;;;;;5032703;28;20324;-69
2022/09/25 01:31:58;;;;;;;11.65;10.95;;;;;;;;;;5033381;28;20312;-71
2022/09/25 01:34:37;;;;;;;12.63;11.82;;;;;;;;;;5067794;28;20033;-70
2022/09/25 01:37:14;;;;;;;12.27;11.48;;;;;;;;;;5033922;28;20248;-70
2022/09/25 01:39:49;;;;;;;13.10;12.10;;;;;;;;;;5035953;28;20033;-69
2022/09/25 01:42:20;;;;;;;14.57;13.60;;;;;;;;;;5035265;28;20035;-70
2022/09/25 01:44:52;;;;;;;11.75;11.00;;;;;;;;;;5033657;28;20032;-69
2022/09/25 01:47:24;;;;;;;12.82;12.07;;;;;;;;;;5035792;28;20037;-70
2022/09/25 01:49:58;;;;;;;13.60;12.65;;;;;;;;;;5038531;28;20056;-70
2022/09/25 01:52:31;;;;;;;12.20;11.48;;;;;;;;;;5038568;28;20128;-69
2022/09/25 01:55:15;;;;;;;14.95;14.05;;;;;;;;;;5038269;28;20033;-69
2022/09/25 01:57:48;;;;;;;18.63;17.38;;;;;;;;;;5037047;28;20028;-69
2022/09/25 02:00:18;;;;;;;19.60;18.35;;;;;;;;;;5036570;28;20367;-70
2022/09/25 02:02:54;;;;;;;18.33;17.27;;;;;;;;;;5037758;28;20045;-70
2022/09/25 02:05:30;;;;;;;22.25;20.95;;;;;;;;;;5038049;28;20056;-71
2022/09/25 02:08:06;;;;;;;24.17;22.80;;;;;;;;;;5036528;28;20467;-71
2022/09/25 02:10:40;;;;;;;26.70;25.15;;;;;;;;;;5039334;28;20034;-70
2022/09/25 02:13:12;;;;;;;28.05;26.48;;;;;;;;;;5038995;28;20119;-70
2022/09/25 02:16:00;;;;;;;27.27;25.77;;;;;;;;;;5037310;28;20029;-71
2022/09/25 02:22:02;;;;;;;27.92;26.38;;;;;;;;;;5005341;28;20314;-72
2022/09/25 02:24:46;;;;;;;28.35;26.67;;;;;;;;;;5039390;28;20095;-71
2022/09/25 02:27:13;;;;;;;29.17;27.52;;;;;;;;;;5039817;28;20029;-70
2022/09/25 02:29:39;;;;;;;29.25;27.45;;;;;;;;;;5034722;28;20414;-70
2022/09/25 02:32:08;;;;;;;25.70;24.00;;;;;;;;;;5038506;28;20033;-70
2022/09/25 02:34:34;;;;;;;24.63;23.23;;;;;;;;;;5037626;28;20378;-69
2022/09/25 02:37:00;;;;;;;21.30;20.13;;;;;;;;;;5036629;28;20021;-70
2022/09/25 02:39:28;;;;;;;25.67;24.08;;;;;;;;;;5038669;28;20359;-69
2022/09/25 02:42:08;;;;;;;26.63;25.02;;;;;;;;;;5037533;28;20469;-70
2022/09/25 02:44:49;;;;;;;24.40;23.00;;;;;;;;;;5034265;28;20096;-69
2022/09/25 02:47:33;;;;;;;19.73;18.60;;;;;;;;;;5037216;28;20037;-70
2022/09/25 02:50:19;;;;;;;20.13;18.98;;;;;;;;;;5035607;28;20507;-69
2022/09/25 02:52:56;;;;;;;18.23;17.13;;;;;;;;;;5037452;28;20101;-70
2022/09/25 02:55:38;;;;;;;18.00;16.90;;;;;;;;;;5033060;28;20037;-69
2022/09/25 02:58:17;;;;;;;18.30;17.15;;;;;;;;;;5037691;28;20622;-69
2022/09/25 03:00:46;;;;;;;17.52;16.50;;;;;;;;;;5036969;28;20033;-69
2022/09/25 03:03:15;;;;;;;17.20;16.20;;;;;;;;;;5034541;28;20361;-69
2022/09/25 03:05:41;;;;;;;14.50;13.63;;;;;;;;;;5037257;28;20029;-70
2022/09/25 03:10:52;;;;;;;15.65;14.65;;;;;;;;;;5037138;28;20029;-69
2022/09/25 03:13:30;;;;;;;18.55;17.40;;;;;;;;;;5038957;28;20232;-69
2022/09/25 03:16:00;;;;;;;19.92;18.77;;;;;;;;;;5039677;28;20052;-69
2022/09/25 03:18:27;;;;;;;21.08;19.70;;;;;;;;;;5036272;28;20387;-70
2022/09/25 03:20:52;;;;;;;20.92;19.60;;;;;;;;;;5035290;28;20368;-70
2022/09/25 03:23:18;;;;;;;20.52;19.30;;;;;;;;;;5039126;28;20021;-69
2022/09/25 03:25:43;;;;;;;22.17;20.95;;;;;;;;;;5036319;28;20590;-69
2022/09/25 03:28:10;;;;;;;22.75;21.35;;;;;;;;;;5036990;28;20102;-70
2022/09/25 03:30:39;;;;;;;22.80;21.40;;;;;;;;;;5036922;28;20120;-69
2022/09/25 03:33:11;;;;;;;24.45;22.95;;;;;;;;;;5036339;28;20045;-69
2022/09/25 03:35:37;;;;;;;22.25;20.95;;;;;;;;;;5036036;28;20033;-70
2022/09/25 03:38:03;;;;;;;24.15;22.70;;;;;;;;;;5038294;28;20074;-69
2022/09/25 03:40:28;;;;;;;23.73;22.30;;;;;;;;;;5040224;28;20033;-69
2022/09/25 03:42:54;;;;;;;22.85;21.55;;;;;;;;;;5033803;28;20048;-69
2022/09/25 03:45:19;;;;;;;23.83;22.48;;;;;;;;;;5035273;28;20040;-70
2022/09/25 03:47:44;;;;;;;23.30;21.95;;;;;;;;;;5038111;28;20035;-69
2022/09/25 03:50:10;;;;;;;22.27;20.98;;;;;;;;;;5036489;28;20339;-70
2022/09/25 03:52:35;;;;;;;23.85;22.52;;;;;;;;;;5035470;28;20375;-70
2022/09/25 03:55:01;;;;;;;23.00;21.50;;;;;;;;;;5034295;28;20113;-70
2022/09/25 03:57:26;;;;;;;22.13;20.90;;;;;;;;;;5037062;28;20299;-69
2022/09/25 03:59:52;;;;;;;21.88;20.60;;;;;;;;;;5035886;28;20037;-69
2022/09/25 04:02:17;;;;;;;22.80;21.27;;;;;;;;;;5036026;28;20067;-69
2022/09/25 04:04:44;;;;;;;20.35;19.20;;;;;;;;;;5035598;28;20447;-70
2022/09/25 04:07:10;;;;;;;20.05;18.65;;;;;;;;;;5031645;28;20127;-70
2022/09/25 04:09:35;;;;;;;18.95;17.85;;;;;;;;;;5035550;28;20032;-70
2022/09/25 04:12:01;;;;;;;20.08;18.75;;;;;;;;;;5032428;28;20081;-70
2022/09/25 04:14:26;;;;;;;21.20;19.98;;;;;;;;;;5037509;28;20048;-69
2022/09/25 04:16:51;;;;;;;21.65;20.35;;;;;;;;;;5036447;28;20091;-69
2022/09/25 04:19:17;;;;;;;19.88;18.70;;;;;;;;;;5037991;28;20029;-70
2022/09/25 04:21:42;;;;;;;22.02;20.67;;;;;;;;;;5037145;28;20357;-70
2022/09/25 04:27:05;;;;;;;20.55;19.33;;;;;;;;;;5006860;28;20127;-70
2022/09/25 04:29:31;;;;;;;22.45;20.92;;;;;;;;;;5037180;28;20520;-70
2022/09/25 04:34:40;;;;;;;20.63;19.45;;;;;;;;;;5039812;28;20422;-70
2022/09/25 04:37:05;;;;;;;20.85;19.60;;;;;;;;;;5039108;28;20139;-69
2022/09/25 04:39:31;;;;;;;20.60;19.33;;;;;;;;;;5035673;28;20024;-69
2022/09/25 04:41:56;;;;;;;24.02;22.23;;;;;;;;;;5038907;28;20124;-69
2022/09/25 04:44:21;;;;;;;22.42;21.02;;;;;;;;;;5038266;28;20068;-69
2022/09/25 04:46:46;;;;;;;23.38;22.00;;;;;;;;;;5037300;28;20108;-69
2022/09/25 04:49:12;;;;;;;23.20;21.88;;;;;;;;;;5042792;28;20036;-69
2022/09/25 04:51:37;;;;;;;23.80;22.08;;;;;;;;;;5036999;28;20751;-69
2022/09/25 04:54:03;;;;;;;23.60;22.23;;;;;;;;;;5040809;28;20370;-69
2022/09/25 04:56:28;;;;;;;22.85;21.48;;;;;;;;;;5039584;28;20354;-69
2022/09/25 04:58:53;;;;;;;21.48;20.27;;;;;;;;;;5043480;28;20048;-69
2022/09/25 05:01:19;;;;;;;21.42;20.13;;;;;;;;;;5040487;28;20033;-61
2022/09/25 05:03:49;;;;;;;23.40;21.80;;;;;;;;;;5038915;28;20030;-61
2022/09/25 05:06:15;;;;;;;21.10;19.60;;;;;;;;;;5035440;28;20053;-61
2022/09/25 05:08:40;;;;;;;22.63;21.33;;;;;;;;;;5035412;28;20075;-61
2022/09/25 05:11:07;;;;;;;22.75;21.25;;;;;;;;;;5038000;28;20033;-61
2022/09/25 05:13:32;;;;;;;23.13;21.80;;;;;;;;;;5038717;28;20045;-60
2022/09/25 05:15:58;;;;;;;22.55;21.23;;;;;;;;;;5037793;28;20029;-61
2022/09/25 05:18:23;;;;;;;20.95;19.75;;;;;;;;;;5035494;28;20029;-61
2022/09/25 05:20:49;;;;;;;21.08;19.83;;;;;;;;;;5037479;28;20047;-60
2022/09/25 05:23:16;;;;;;;22.95;21.52;;;;;;;;;;5037539;28;20048;-60
2022/09/25 05:25:41;;;;;;;21.55;20.30;;;;;;;;;;5033502;28;20041;-60
2022/09/25 05:28:08;;;;;;;21.90;20.63;;;;;;;;;;5036721;28;20191;-59
2022/09/25 05:30:36;;;;;;;20.38;19.17;;;;;;;;;;5036633;28;20027;-60
2022/09/25 05:33:01;;;;;;;21.27;19.98;;;;;;;;;;5034628;28;20106;-60
2022/09/25 05:35:29;;;;;;;18.60;17.30;;;;;;;;;;5034857;28;20447;-60
2022/09/25 05:37:55;;;;;;;20.88;19.48;;;;;;;;;;5033070;28;20091;-60
2022/09/25 05:40:22;;;;;;;20.52;19.17;;;;;;;;;;5034949;28;20494;-60
2022/09/25 05:42:48;;;;;;;19.70;18.48;;;;;;;;;;5035932;28;20041;-60
2022/09/25 05:45:14;;;;;;;19.48;18.33;;;;;;;;;;5035274;28;20036;-64
2022/09/25 05:47:40;;;;;;;19.42;18.23;;;;;;;;;;5036149;28;20072;-61
2022/09/25 05:50:08;;;;;;;18.55;17.25;;;;;;;;;;5034987;28;20502;-60
2022/09/25 05:52:33;;;;;;;18.83;17.70;;;;;;;;;;5037667;28;20052;-59
2022/09/25 05:54:59;;;;;;;15.95;15.00;;;;;;;;;;5036836;28;20025;-60
2022/09/25 05:57:25;;;;;;;18.67;17.48;;;;;;;;;;5037155;28;20120;-60
2022/09/25 05:59:50;;;;;;;16.83;15.73;;;;;;;;;;5035483;28;20105;-60
2022/09/25 06:02:15;;;;;;;18.25;17.05;;;;;;;;;;5036450;28;20038;-62
2022/09/25 06:04:41;;;;;;;17.80;16.67;;;;;;;;;;5030985;28;20025;-62
2022/09/25 06:07:08;;;;;;;17.60;16.50;;;;;;;;;;5033854;28;20112;-62
2022/09/25 06:09:34;;;;;;;17.58;16.52;;;;;;;;;;5035402;28;20099;-62
2022/09/25 06:12:00;;;;;;;18.13;16.92;;;;;;;;;;5036289;28;20036;-62
2022/09/25 06:14:26;;;;;;;20.45;18.70;;;;;;;;;;5032181;28;20441;-60
2022/09/25 06:16:51;;;;;;;16.42;15.43;;;;;;;;;;5038239;28;20017;-61
2022/09/25 06:19:16;;;;;;;17.95;16.85;;;;;;;;;;5037567;28;20509;-63
2022/09/25 06:21:42;;;;;;;17.63;16.48;;;;;;;;;;5031754;28;20033;-64
2022/09/25 06:24:09;;;;;;;16.05;14.95;;;;;;;;;;5035263;28;20021;-63
2022/09/25 06:26:35;;;;;;;15.23;14.32;;;;;;;;;;5051239;28;20026;-63
2022/09/25 06:29:02;;;;;;;15.93;14.95;;;;;;;;;;5034026;28;20029;-64
2022/09/25 06:31:27;;;;;;;16.30;15.32;;;;;;;;;;5035500;28;20029;-62
2022/09/25 06:33:52;;;;;;;16.77;15.52;;;;;;;;;;5038681;28;20106;-63
2022/09/25 06:36:18;;;;;;;16.00;15.00;;;;;;;;;;5037273;28;20029;-63
2022/09/25 06:38:43;;;;;;;17.50;16.42;;;;;;;;;;5037220;28;20037;-63
2022/09/25 06:41:08;;;;;;;18.50;17.38;;;;;;;;;;5037934;28;20025;-64
2022/09/25 06:43:34;;;;;;;18.60;17.40;;;;;;;;;;5036727;28;20032;-64
2022/09/25 06:46:03;;;;;;;21.67;20.40;;;;;;;;;;5036872;28;20067;-65
2022/09/25 06:48:29;;;;;;;19.33;18.13;;;;;;;;;;5045373;28;20033;-65
2022/09/25 06:50:56;;;;;;;18.95;17.75;;;;;;;;;;5036823;28;20546;-64
2022/09/25 06:53:24;;;;;;;19.77;18.60;;;;;;;;;;5041837;28;20668;-64
2022/09/25 06:55:49;;;;;;;16.20;15.23;;;;;;;;;;5038457;28;20112;-64
2022/09/25 06:58:19;;;;;;;18.40;17.00;;;;;;;;;;5038578;28;20804;-64
2022/09/25 07:00:49;;;;;;;15.95;14.95;;;;;;;;;;5037807;28;20028;-64
2022/09/25 07:06:00;;;;;;;17.30;16.20;;;;;;;;;;5035900;28;20035;-64
2022/09/25 07:08:26;;;;;;;16.52;15.48;;;;;;;;;;5037098;28;20112;-64
2022/09/25 07:10:56;;;;;;;18.20;17.02;;;;;;;;;;5036284;28;20243;-64
2022/09/25 07:13:28;;;;;;;15.90;14.90;;;;;;;;;;5040726;28;20030;-65
2022/09/25 07:15:59;;;;;;;16.38;15.27;;;;;;;;;;5036649;28;20048;-65
2022/09/25 07:18:26;;;;;;;19.13;17.80;;;;;;;;;;5036104;28;20029;-64
2022/09/25 07:20:52;;;;;;;16.92;15.63;;;;;;;;;;5037590;28;20636;-64
2022/09/25 07:23:19;;;;;;;13.75;12.77;;;;;;;;;;5040584;28;20572;-64
2022/09/25 07:25:45;;;;;;;17.30;16.20;;;;;;;;;;5040896;28;20029;-63
2022/09/25 07:28:13;;;;;;;15.07;14.07;;;;;;;;;;5039193;28;20539;-64
2022/09/25 07:30:39;;;;;;;16.15;15.05;;;;;;;;;;5037928;28;20087;-64
2022/09/25 07:33:05;;;;;;;19.25;17.75;;;;;;;;;;5036253;28;20037;-64
2022/09/25 07:35:30;;;;;;;24.17;22.70;;;;;;;;;;5035108;28;20049;-65
2022/09/25 07:37:56;;;;;;;22.90;21.50;;;;;;;;;;5031877;28;20091;-65
2022/09/25 07:40:22;;;;;;;27.67;25.88;;;;;;;;;;5039489;28;20056;-66
2022/09/25 07:42:47;;;;;;;20.45;19.15;;;;;;;;;;5038999;28;20025;-65
2022/09/25 07:45:13;;;;;;;24.10;22.65;;;;;;;;;;5039457;28;20042;-65
2022/09/25 07:47:39;;;;;;;18.95;17.80;;;;;;;;;;5040265;28;20130;-64
2022/09/25 07:50:05;;;;;;;22.20;20.67;;;;;;;;;;5036069;28;20057;-62
2022/09/25 07:52:30;;;;;;;17.50;16.00;;;;;;;;;;5037764;28;20045;-65
2022/09/25 07:54:55;;;;;;;17.83;16.70;;;;;;;;;;5034727;28;20116;-64
2022/09/25 07:57:21;;;;;;;16.17;15.05;;;;;;;;;;5036831;28;20033;-65
2022/09/25 07:59:46;;;;;;;13.68;12.77;;;;;;;;;;5023801;28;20037;-65
2022/09/25 08:02:12;;;;;;;13.45;12.32;;;;;;;;;;5035360;28;20037;-64
2022/09/25 08:04:37;;;;;;;10.90;10.10;;;;;;;;;;5034127;28;20029;-64
2022/09/25 08:07:03;;;;;;;11.65;10.85;;;;;;;;;;5036485;28;20302;-64
2022/09/25 08:09:29;;;;;;;12.52;11.52;;;;;;;;;;5036679;28;20039;-64
2022/09/25 08:11:54;;;;;;;11.93;11.10;;;;;;;;;;5036302;28;20026;-65
2022/09/25 08:14:20;;;;;;;11.75;10.70;;;;;;;;;;5035115;28;20026;-65
2022/09/25 08:16:46;;;;;;;11.82;11.02;;;;;;;;;;5036001;28;20040;-64
2022/09/25 08:19:12;;;;;;;12.70;11.75;;;;;;;;;;5039642;28;20021;-65
2022/09/25 08:21:37;;;;;;;12.02;11.23;;;;;;;;;;5036109;28;20287;-64
2022/09/25 08:24:02;;;;;;;15.48;14.23;;;;;;;;;;5035393;28;20451;-64
2022/09/25 08:26:29;;;;;;;11.98;11.18;;;;;;;;;;5033912;28;20383;-66
2022/09/25 08:28:54;;;;;;;13.43;12.43;;;;;;;;;;5036649;28;20045;-66
2022/09/25 08:31:20;;;;;;;13.48;12.63;;;;;;;;;;5034887;28;20032;-65
2022/09/25 08:33:47;;;;;;;14.95;13.75;;;;;;;;;;5037348;28;20044;-65
2022/09/25 08:36:12;;;;;;;16.42;15.32;;;;;;;;;;5040319;28;20033;-65
2022/09/25 08:38:38;;;;;;;17.45;16.25;;;;;;;;;;5038364;28;20116;-65
2022/09/25 08:41:22;;;;;;;14.10;13.10;;;;;;;;;;5036598;28;20083;-64
2022/09/25 08:43:59;;;;;;;12.95;12.15;;;;;;;;;;5035191;28;20017;-66
2022/09/25 08:49:31;;;;;;;11.38;10.57;;;;;;;;;;5033763;28;20021;-64
2022/09/25 08:52:01;;;;;;;10.98;10.20;;;;;;;;;;5036819;28;20098;-66
2022/09/25 08:54:30;;;;;;;12.07;11.27;;;;;;;;;;5036508;28;20079;-65
2022/09/25 08:57:00;;;;;;;11.75;10.95;;;;;;;;;;5035696;28;20128;-64
2022/09/25 08:59:38;;;;;;;13.03;12.23;;;;;;;;;;5036051;28;20041;-64
2022/09/25 09:02:14;;;;;;;12.70;11.70;;;;;;;;;;5032769;28;20040;-65
2022/09/25 09:04:46;;;;;;;12.30;11.20;;;;;;;;;;5037638;28;20104;-64
2022/09/25 09:07:21;;;;;;;11.80;11.00;;;;;;;;;;5031859;28;20481;-65
2022/09/25 09:09:53;;;;;;;13.13;12.05;;;;;;;;;;5035689;28;20104;-65
2022/09/25 09:12:26;;;;;;;12.85;11.95;;;;;;;;;;5038241;28;20040;-65
2022/09/25 09:15:05;;;;;;;12.70;11.80;;;;;;;;;;5040385;28;20024;-65
2022/09/25 09:17:39;;;;;;;13.20;12.30;;;;;;;;;;5042535;28;20530;-65
2022/09/25 09:20:16;;;;;;;14.98;13.98;;;;;;;;;;5039054;28;20063;-71
2022/09/25 09:22:47;;;;;;;15.57;14.57;;;;;;;;;;5042218;28;20108;-69
2022/09/25 09:25:24;;;;;;;14.95;14.00;;;;;;;;;;5038410;28;20056;-69
2022/09/25 09:28:21;;;;;;;14.90;13.93;;;;;;;;;;5039557;28;20040;-69
2022/09/25 09:31:08;;;;;;;14.15;13.15;;;;;;;;;;5035713;28;20033;-69
2022/09/25 09:33:43;;;;;;;11.95;11.15;;;;;;;;;;5038461;28;20036;-69
2022/09/25 09:36:29;;;;;;;13.35;12.45;;;;;;;;;;5035470;28;20037;-69
2022/09/25 09:39:24;;;;;;;12.70;11.90;;;;;;;;;;5039787;28;20067;-70
2022/09/25 09:41:53;;;;;;;13.18;12.10;;;;;;;;;;5035710;28;20037;-70
2022/09/25 09:44:50;;;;;;;11.82;10.95;;;;;;;;;;5036581;28;20025;-70
2022/09/25 09:47:58;;;;;;;13.23;12.35;;;;;;;;;;5071252;28;20450;-71
2022/09/25 09:50:43;;;;;;;11.07;10.38;;;;;;;;;;5036787;28;20458;-71
2022/09/25 09:53:39;;;;;;;11.60;10.70;;;;;;;;;;5036178;28;20037;-71
2022/09/25 09:56:13;;;;;;;11.85;11.07;;;;;;;;;;5026794;28;20041;-71
2022/09/25 09:59:13;;;;;;;10.88;10.18;;;;;;;;;;5038655;28;20041;-70
2022/09/25 10:01:41;;;;;;;10.98;10.27;;;;;;;;;;5034557;28;20032;-70
2022/09/25 10:04:16;;;;;;;13.00;12.10;;;;;;;;;;5037451;28;20036;-70
2022/09/25 10:07:17;;;;;;;13.32;12.32;;;;;;;;;;5038940;28;20038;-69
2022/09/25 10:09:42;;;;;;;11.98;11.20;;;;;;;;;;5038856;28;20103;-70
2022/09/25 10:12:19;;;;;;;13.82;12.93;;;;;;;;;;5040162;28;20044;-70
2022/09/25 10:14:46;;;;;;;13.80;12.88;;;;;;;;;;5045671;28;20422;-66
2022/09/25 10:17:11;;;;;;;14.68;13.77;;;;;;;;;;5038007;28;20410;-66
2022/09/25 10:19:54;;;;;;;15.32;14.32;;;;;;;;;;5038881;28;20017;-65
2022/09/25 10:22:42;;;;;;;16.00;14.90;;;;;;;;;;5037805;28;20040;-64
2022/09/25 10:25:08;;;;;;;14.68;13.73;;;;;;;;;;5042104;28;20086;-65
2022/09/25 10:27:35;;;;;;;17.63;16.42;;;;;;;;;;5038401;28;20037;-71
2022/09/25 10:30:19;;;;;;;12.98;12.05;;;;;;;;;;5036641;28;20048;-68
2022/09/25 10:32:52;;;;;;;14.27;13.23;;;;;;;;;;5039609;28;20538;-68
2022/09/25 10:35:24;;;;;;;18.63;17.42;;;;;;;;;;5036568;28;20567;-67
2022/09/25 10:37:55;;;;;;;16.15;15.05;;;;;;;;;;5040007;28;20029;-67
2022/09/25 10:40:43;;;;;;;;;;;;;;;;;;5036506;28;20032;-67
2022/09/25 10:43:22;;;;;;;15.15;14.13;;;;;;;;;;5038741;28;19927;-68
2022/09/25 10:46:06;;;;;;;17.38;13.38;;;;;;;;;;5036990;28;20040;-68
2022/09/25 10:51:20;;;;;;;16.30;15.20;;;;;;;;;;5065227;28;20471;-70
2022/09/25 10:53:47;;;;;;;15.38;14.38;;;;;;;;;;5036574;28;20029;-69
2022/09/25 10:56:31;;;;;;;14.20;13.25;;;;;;;;;;5040478;28;20029;-69
2022/09/25 10:59:00;;;;;;;13.77;12.88;;;;;;;;;;5038513;28;20490;-68
2022/09/25 11:01:35;;;;;;;14.63;13.68;;;;;;;;;;5035045;28;20028;-69
2022/09/25 11:04:04;;;;;;;15.75;14.65;;;;;;;;;;5038245;28;20033;-69
2022/09/25 11:06:33;;;;;;;16.80;15.70;;;;;;;;;;5033086;28;20052;-69
2022/09/25 11:09:12;;;;;;;15.85;14.68;;;;;;;;;;5032960;28;20021;-68
2022/09/25 11:11:39;;;;;;;16.27;15.27;;;;;;;;;;5039733;28;20028;-69
2022/09/25 11:14:17;;;;;;;16.15;14.98;;;;;;;;;;5035978;28;20076;-67
2022/09/25 11:16:54;;;;;;;15.65;14.65;;;;;;;;;;5034425;28;20170;-68
2022/09/25 11:19:29;;;;;;;16.75;15.65;;;;;;;;;;5034838;28;20508;-68
2022/09/25 11:22:06;;;;;;;14.10;13.20;;;;;;;;;;5035805;28;20402;-68
2022/09/25 11:24:56;;;;;;;14.88;13.98;;;;;;;;;;5034383;28;20025;-68
2022/09/25 11:27:31;;;;;;;15.70;14.80;;;;;;;;;;5034756;28;20247;-66
2022/09/25 11:30:04;;;;;;;15.85;14.65;;;;;;;;;;5041268;28;20124;-68
2022/09/25 11:32:57;;;;;;;14.10;12.80;;;;;;;;;;5036558;28;20022;-69
2022/09/25 11:35:40;;;;;;;16.08;14.98;;;;;;;;;;5037519;28;20042;-69
2022/09/25 11:38:11;;;;;;;13.93;12.70;;;;;;;;;;5037472;28;20045;-68
2022/09/25 11:41:11;;;;;;;14.80;13.80;;;;;;;;;;5036826;28;20029;-68
2022/09/25 11:43:49;;;;;;;13.15;12.32;;;;;;;;;;5037317;28;20095;-68
2022/09/25 11:46:34;;;;;;;11.88;11.18;;;;;;;;;;5034975;28;20117;-68
2022/09/25 11:49:09;;;;;;;11.27;10.57;;;;;;;;;;5035990;28;20168;-68
2022/09/25 11:51:51;;;;;;;16.48;14.93;;;;;;;;;;5038763;28;20041;-67
2022/09/25 11:54:42;;;;;;;14.55;13.65;;;;;;;;;;5036350;28;20037;-68
2022/09/25 11:57:20;;;;;;;14.10;13.30;;;;;;;;;;5035628;28;20080;-67
2022/09/25 12:00:06;;;;;;;13.52;12.73;;;;;;;;;;5035610;28;20041;-68
2022/09/25 12:02:40;;;;;;;11.73;11.02;;;;;;;;;;5066630;28;20029;-69
2022/09/25 12:05:17;;;;;;;11.73;11.02;;;;;;;;;;5034722;28;20118;-69
2022/09/25 12:08:07;;;;;;;13.85;13.05;;;;;;;;;;5034628;28;20497;-68
2022/09/25 12:11:11;;;;;;;13.13;12.33;;;;;;;;;;5073467;28;20537;-68
2022/09/25 12:13:48;;;;;;;13.32;12.52;;;;;;;;;;5035427;28;20425;-68
2022/09/25 12:16:51;;;;;;;12.45;11.65;;;;;;;;;;5036373;28;20048;-68
2022/09/25 12:19:47;;;;;;;11.07;10.38;;;;;;;;;;5037117;28;20606;-68
2022/09/25 12:22:51;;;;;;;11.55;10.85;;;;;;;;;;5034970;28;20044;-68
2022/09/25 12:25:28;;;;;;;12.52;11.73;;;;;;;;;;5023371;28;20056;-70
2022/09/25 12:27:57;;;;;;;13.07;12.27;;;;;;;;;;5035302;28;20048;-65
2022/09/25 12:30:32;;;;;;;13.35;12.55;;;;;;;;;;5036893;28;20024;-66
2022/09/25 12:33:24;;;;;;;11.85;10.95;;;;;;;;;;5037739;28;20327;-65
2022/09/25 12:35:56;;;;;;;10.50;9.90;;;;;;;;;;5035021;28;20056;-64
2022/09/25 12:38:34;;;;;;;9.60;9.00;;;;;;;;;;5050473;28;20053;-66
2022/09/25 12:41:27;;;;;;;11.02;10.32;;;;;;;;;;5032167;28;20045;-66
2022/09/25 12:44:17;;;;;;;11.77;11.07;;;;;;;;;;5036134;28;20119;-66
2022/09/25 12:47:01;;;;;;;12.70;11.90;;;;;;;;;;5036249;28;20511;-65
2022/09/25 12:49:38;;;;;;;13.15;12.35;;;;;;;;;;5034225;28;20029;-65
2022/09/25 12:52:29;;;;;;;12.30;11.60;;;;;;;;;;5037417;28;20037;-66
2022/09/25 12:55:12;;;;;;;12.65;11.90;;;;;;;;;;5032270;28;20080;-65
2022/09/25 12:57:59;;;;;;;13.57;12.77;;;;;;;;;;5033121;28;20490;-66
2022/09/25 13:00:28;;;;;;;14.73;13.82;;;;;;;;;;5035299;28;20045;-66
2022/09/25 13:03:03;;;;;;;15.05;14.15;;;;;;;;;;5035897;28;20367;-66
2022/09/25 13:05:32;;;;;;;14.68;13.85;;;;;;;;;;5037712;28;20040;-66
2022/09/25 13:08:14;;;;;;;13.88;12.98;;;;;;;;;;5034443;28;20038;-66
2022/09/25 13:10:50;;;;;;;12.60;11.90;;;;;;;;;;5034453;28;20075;-65
2022/09/25 13:13:23;;;;;;;14.15;13.35;;;;;;;;;;5038166;28;20034;-65
2022/09/25 13:15:59;;;;;;;13.93;13.13;;;;;;;;;;5042490;28;20102;-65
2022/09/25 13:18:27;;;;;;;13.82;13.02;;;;;;;;;;5033614;28;20044;-66
2022/09/25 13:20:57;;;;;;;14.30;13.50;;;;;;;;;;5036022;28;20061;-66
2022/09/25 13:23:27;;;;;;;15.25;14.30;;;;;;;;;;5035217;28;20033;-66
2022/09/25 13:25:59;;;;;;;14.10;13.30;;;;;;;;;;5035214;28;20558;-68
2022/09/25 13:28:37;;;;;;;13.45;12.65;;;;;;;;;;5032769;28;20041;-66
2022/09/25 13:31:20;;;;;;;13.88;13.07;;;;;;;;;;5034740;28;20041;-66
2022/09/25 13:33:56;;;;;;;14.02;13.13;;;;;;;;;;5038731;28;20599;-66
2022/09/25 13:36:22;;;;;;;14.07;13.27;;;;;;;;;;5036108;28;20029;-64
2022/09/25 13:41:58;;;;;;;12.93;12.13;;;;;;;;;;5038466;28;20364;-64
2022/09/25 13:44:44;;;;;;;12.77;11.98;;;;;;;;;;5038320;28;20025;-63
2022/09/25 13:47:35;;;;;;;12.55;11.85;;;;;;;;;;5041745;28;20039;-64
2022/09/25 13:50:10;;;;;;;13.25;12.45;;;;;;;;;;5039078;28;20037;-64
2022/09/25 13:52:35;;;;;;;14.18;13.23;;;;;;;;;;5037318;28;20037;-64
2022/09/25 13:55:19;;;;;;;12.25;11.55;;;;;;;;;;5039696;28;20086;-63
2022/09/25 13:58:15;;;;;;;12.65;11.95;;;;;;;;;;5037893;28;20438;-63
2022/09/25 14:00:52;;;;;;;15.20;14.30;;;;;;;;;;5040505;28;20044;-65
2022/09/25 14:03:31;;;;;;;14.75;13.95;;;;;;;;;;5037726;28;20044;-65
2022/09/25 14:05:58;;;;;;;17.33;16.33;;;;;;;;;;5038746;28;20690;-65
2022/09/25 14:08:26;;;;;;;15.15;14.25;;;;;;;;;;5037415;28;20060;-65
2022/09/25 14:10:54;;;;;;;16.25;15.35;;;;;;;;;;5034196;28;20099;-65
2022/09/25 14:13:22;;;;;;;16.85;15.85;;;;;;;;;;5039046;28;20037;-65
2022/09/25 14:15:49;;;;;;;16.95;16.05;;;;;;;;;;5036317;28;20018;-65
2022/09/25 14:18:20;;;;;;;19.73;18.63;;;;;;;;;;5036901;28;20040;-65
2022/09/25 14:20:55;;;;;;;18.23;17.20;;;;;;;;;;5040623;28;20025;-65
2022/09/25 14:23:26;;;;;;;18.38;17.25;;;;;;;;;;5069859;28;20052;-65
2022/09/25 14:26:05;;;;;;;17.58;16.33;;;;;;;;;;5036597;28;20090;-65
2022/09/25 14:28:52;;;;;;;17.38;16.27;;;;;;;;;;5038417;28;20471;-65
2022/09/25 14:31:38;;;;;;;16.10;15.20;;;;;;;;;;5037305;28;20053;-65
2022/09/25 14:34:29;;;;;;;16.23;15.23;;;;;;;;;;5037559;28;20467;-65
2022/09/25 14:37:27;;;;;;;16.90;15.90;;;;;;;;;;5038732;28;20389;-65
2022/09/25 14:40:03;;;;;;;14.25;13.45;;;;;;;;;;5037064;28;20089;-65
2022/09/25 14:42:50;;;;;;;17.02;16.05;;;;;;;;;;5037585;28;20100;-65
2022/09/25 14:45:24;;;;;;;16.05;15.05;;;;;;;;;;5038630;28;20112;-65
2022/09/25 14:47:54;;;;;;;15.13;14.18;;;;;;;;;;5035093;28;20033;-64
2022/09/25 14:50:35;;;;;;;14.90;14.10;;;;;;;;;;5038202;28;20231;-63
2022/09/25 14:53:07;;;;;;;16.30;15.40;;;;;;;;;;5034404;28;20391;-64
2022/09/25 14:55:41;;;;;;;15.52;14.63;;;;;;;;;;5039342;28;20116;-64
2022/09/25 14:58:10;;;;;;;16.38;15.48;;;;;;;;;;5039983;28;20366;-64
2022/09/25 15:00:44;;;;;;;15.85;14.95;;;;;;;;;;5037997;28;20235;-64
2022/09/25 15:03:13;;;;;;;15.35;14.45;;;;;;;;;;5038086;28;20037;-64
2022/09/25 15:05:44;;;;;;;14.55;13.70;;;;;;;;;;5039165;28;20025;-63
2022/09/25 15:08:33;;;;;;;16.38;15.45;;;;;;;;;;5037074;28;20044;-65
2022/09/25 15:11:14;;;;;;;10.57;9.93;;;;;;;;;;5051597;28;20127;-64
2022/09/25 15:13:41;;;;;;;14.40;13.50;;;;;;;;;;5027112;28;20029;-64
2022/09/25 15:18:59;;;;;;;14.00;13.20;;;;;;;;;;5034990;28;20545;-64